createdAt,value
2018-09-09T00:01:25.035Z,16.07
2018-09-09T00:03:52.764Z,21.80
2018-09-09T00:06:20.473Z,11.83
2018-09-09T00:08:48.212Z,8.93
2018-09-09T00:11:15.906Z,11.03
2018-09-09T00:13:43.592Z,14.07
2018-09-09T00:16:11.343Z,15.60
2018-09-09T00:18:39.006Z,13.13
2018-09-09T00:21:06.392Z,11.73
2018-09-09T00:23:34.088Z,15.33
2018-09-09T00:26:01.827Z,22.83
2018-09-09T00:28:29.505Z,6.90
2018-09-09T00:30:57.216Z,20.60
2018-09-09T00:33:25.004Z,19.30
2018-09-09T00:35:52.726Z,37.97
2018-09-09T00:38:20.424Z,13.63
2018-09-09T00:40:48.173Z,9.47
2018-09-09T00:43:15.861Z,13.00
2018-09-09T00:45:43.558Z,8.20
2018-09-09T00:48:11.244Z,15.03
2018-09-09T00:50:44.519Z,15.93
2018-09-09T00:53:17.805Z,8.70
2018-09-09T00:55:45.503Z,12.03
2018-09-09T00:58:13.195Z,14.50
2018-09-09T01:00:46.670Z,32.30
2018-09-09T01:03:14.379Z,9.47
2018-09-09T01:05:42.131Z,14.43
2018-09-09T01:08:09.811Z,8.00
2018-09-09T01:10:37.512Z,13.63
2018-09-09T01:13:05.470Z,7.47
2018-09-09T01:15:33.175Z,10.40
2018-09-09T01:18:00.852Z,12.50
2018-09-09T01:20:28.592Z,9.70
2018-09-09T01:22:56.345Z,7.80
2018-09-09T01:25:24.048Z,14.40
2018-09-09T01:27:51.731Z,7.13
2018-09-09T01:30:19.475Z,6.73
2018-09-09T01:32:47.198Z,12.40
2018-09-09T01:35:14.916Z,8.80
2018-09-09T01:37:42.635Z,10.83
2018-09-09T01:40:10.352Z,16.70
2018-09-09T01:42:38.061Z,6.97
2018-09-09T01:45:05.870Z,6.80
2018-09-09T01:47:33.592Z,8.37
2018-09-09T01:50:01.339Z,13.63
2018-09-09T01:52:29.064Z,22.83
2018-09-09T01:54:56.769Z,7.97
2018-09-09T01:57:24.472Z,10.50
2018-09-09T01:59:52.171Z,11.90
2018-09-09T02:02:19.913Z,10.33
2018-09-09T02:04:47.648Z,9.53
2018-09-09T02:07:15.344Z,11.33
2018-09-09T02:09:43.123Z,10.87
2018-09-09T02:12:10.839Z,15.43
2018-09-09T02:14:38.624Z,12.83
2018-09-09T02:17:06.319Z,8.53
2018-09-09T02:19:34.040Z,14.30
2018-09-09T02:22:01.775Z,13.30
2018-09-09T02:24:29.509Z,14.63
2018-09-09T02:26:57.454Z,23.13
2018-09-09T02:29:25.156Z,17.37
2018-09-09T02:31:52.883Z,19.70
2018-09-09T02:34:20.619Z,33.80
2018-09-09T02:36:48.318Z,31.10
2018-09-09T02:39:15.987Z,22.03
2018-09-09T02:41:43.788Z,29.60
2018-09-09T02:44:11.622Z,29.67
2018-09-09T02:46:39.341Z,43.20
2018-09-09T02:49:07.072Z,31.37
2018-09-09T02:51:34.776Z,40.37
2018-09-09T02:54:02.523Z,36.00
2018-09-09T02:56:30.216Z,32.97
2018-09-09T02:58:57.930Z,45.97
2018-09-09T03:01:25.659Z,58.70
2018-09-09T03:03:53.368Z,45.77
2018-09-09T03:06:21.116Z,57.27
2018-09-09T03:08:48.806Z,48.63
2018-09-09T03:11:16.501Z,47.07
2018-09-09T03:13:45.247Z,56.47
2018-09-09T03:16:12.967Z,84.97
2018-09-09T03:18:41.556Z,55.43
2018-09-09T03:21:09.328Z,76.83
2018-09-09T03:23:37.063Z,55.10
2018-09-09T03:26:04.779Z,63.87
2018-09-09T03:28:33.148Z,87.70
2018-09-09T03:31:00.924Z,98.87
2018-09-09T03:33:28.628Z,81.70
2018-09-09T03:35:56.391Z,73.60
2018-09-09T03:38:24.082Z,73.53
2018-09-09T03:40:51.802Z,102.70
2018-09-09T03:43:19.539Z,79.33
2018-09-09T03:45:47.544Z,84.43
2018-09-09T03:48:15.245Z,70.93
2018-09-09T03:50:43.008Z,67.00
2018-09-09T03:53:10.703Z,79.37
2018-09-09T03:55:38.380Z,87.97
2018-09-09T03:58:06.115Z,81.63
2018-09-09T04:00:33.799Z,71.50
2018-09-09T04:03:01.486Z,82.77
2018-09-09T04:05:29.212Z,63.20
2018-09-09T04:07:56.926Z,79.10
2018-09-09T04:10:24.640Z,70.63
2018-09-09T04:12:52.339Z,58.33
2018-09-09T04:15:20.068Z,68.27
2018-09-09T04:17:47.813Z,66.60
2018-09-09T04:20:15.527Z,80.13
2018-09-09T04:22:43.263Z,79.30
2018-09-09T04:25:10.951Z,58.13
2018-09-09T04:27:38.636Z,80.50
2018-09-09T04:30:06.604Z,56.63
2018-09-09T04:32:34.315Z,72.03
2018-09-09T04:35:02.159Z,61.87
2018-09-09T04:37:29.897Z,71.70
2018-09-09T04:39:57.625Z,45.27
2018-09-09T04:42:25.353Z,56.40
2018-09-09T04:44:53.108Z,58.63
2018-09-09T04:47:20.808Z,51.30
2018-09-09T04:49:48.548Z,56.83
2018-09-09T04:52:16.284Z,40.53
2018-09-09T04:54:43.983Z,58.17
2018-09-09T04:57:11.746Z,59.43
2018-09-09T04:59:39.480Z,57.37
2018-09-09T05:02:07.192Z,44.60
2018-09-09T05:04:34.966Z,48.57
2018-09-09T05:07:02.668Z,46.90
2018-09-09T05:09:30.416Z,55.07
2018-09-09T05:11:58.140Z,38.13
2018-09-09T05:14:25.822Z,41.47
2018-09-09T05:16:53.541Z,48.17
2018-09-09T05:19:21.351Z,38.73
2018-09-09T05:21:49.080Z,46.63
2018-09-09T05:24:16.834Z,32.63
2018-09-09T05:26:44.536Z,37.97
2018-09-09T05:29:12.225Z,31.80
2018-09-09T05:31:39.916Z,33.73
2018-09-09T05:34:07.639Z,34.47
2018-09-09T05:36:35.402Z,29.87
2018-09-09T05:39:03.597Z,26.10
2018-09-09T05:41:31.334Z,26.17
2018-09-09T05:43:59.080Z,26.20
2018-09-09T05:46:26.804Z,26.30
2018-09-09T05:48:54.496Z,23.73
2018-09-09T05:51:22.204Z,26.73
2018-09-09T05:53:49.976Z,21.57
2018-09-09T05:56:17.708Z,23.00
2018-09-09T05:58:45.432Z,18.50
2018-09-09T06:01:13.246Z,18.70
2018-09-09T06:03:40.984Z,22.37
2018-09-09T06:06:08.719Z,16.10
2018-09-09T06:08:36.421Z,17.73
2018-09-09T06:11:04.187Z,19.53
2018-09-09T06:13:31.916Z,16.70
2018-09-09T06:15:59.684Z,13.97
2018-09-09T06:18:27.405Z,16.40
2018-09-09T06:20:55.120Z,15.30
2018-09-09T06:23:22.873Z,19.40
2018-09-09T06:25:50.674Z,15.10
2018-09-09T06:28:18.443Z,14.47
2018-09-09T06:30:46.131Z,15.53
2018-09-09T06:33:13.862Z,14.83
2018-09-09T06:35:41.582Z,12.97
2018-09-09T06:38:09.319Z,11.97
2018-09-09T06:40:37.066Z,10.77
2018-09-09T06:43:04.893Z,14.27
2018-09-09T06:45:32.629Z,19.30
2018-09-09T06:48:00.328Z,17.17
2018-09-09T06:50:28.051Z,15.63
2018-09-09T06:52:55.774Z,16.30
2018-09-09T06:55:23.630Z,14.80
2018-09-09T06:57:51.324Z,15.60
2018-09-09T07:00:19.012Z,16.93
2018-09-09T07:02:46.757Z,18.77
2018-09-09T07:05:14.487Z,16.93
2018-09-09T07:07:42.211Z,15.70
2018-09-09T07:10:09.983Z,13.27
2018-09-09T07:12:37.732Z,13.43
2018-09-09T07:15:05.738Z,15.47
2018-09-09T07:17:33.477Z,22.60
2018-09-09T07:20:01.174Z,14.17
2018-09-09T07:22:28.964Z,22.23
2018-09-09T07:24:56.749Z,16.27
2018-09-09T07:27:24.460Z,15.67
2018-09-09T07:29:52.168Z,18.80
2018-09-09T07:32:19.975Z,19.33
2018-09-09T07:34:47.712Z,18.73
2018-09-09T07:37:15.544Z,18.13
2018-09-09T07:39:43.270Z,15.93
2018-09-09T07:42:11.060Z,21.00
2018-09-09T07:44:38.804Z,15.33
2018-09-09T07:47:06.689Z,15.53
2018-09-09T07:49:34.411Z,15.43
2018-09-09T07:52:02.120Z,19.00
2018-09-09T07:54:29.866Z,22.47
2018-09-09T07:56:57.580Z,15.03
2018-09-09T07:59:25.276Z,16.23
2018-09-09T08:01:53.053Z,15.70
2018-09-09T08:04:20.773Z,16.40
2018-09-09T08:06:48.472Z,13.90
2018-09-09T08:09:16.199Z,18.97
2018-09-09T08:11:43.926Z,24.57
2018-09-09T08:14:11.646Z,18.63
2018-09-09T08:16:39.390Z,17.20
2018-09-09T08:19:07.111Z,20.70
2018-09-09T08:21:35.084Z,23.93
2018-09-09T08:24:02.912Z,20.83
2018-09-09T08:26:30.628Z,21.43
2018-09-09T08:28:58.341Z,20.97
2018-09-09T08:31:26.060Z,22.03
2018-09-09T08:33:54.017Z,27.30
2018-09-09T08:36:21.736Z,19.37
2018-09-09T08:38:49.453Z,23.73
2018-09-09T08:41:17.153Z,26.37
2018-09-09T08:43:44.946Z,22.90
2018-09-09T08:46:12.693Z,23.80
2018-09-09T08:48:40.375Z,25.73
2018-09-09T08:51:08.183Z,25.33
2018-09-09T08:53:35.987Z,29.63
2018-09-09T08:56:03.745Z,20.63
2018-09-09T08:58:31.449Z,21.97
2018-09-09T09:00:59.558Z,20.67
2018-09-09T09:03:27.279Z,25.53
2018-09-09T09:05:55.013Z,21.73
2018-09-09T09:08:22.740Z,21.40
2018-09-09T09:10:50.495Z,21.80
2018-09-09T09:13:18.244Z,20.20
2018-09-09T09:15:46.020Z,24.70
2018-09-09T09:18:13.748Z,28.77
2018-09-09T09:20:41.519Z,30.87
2018-09-09T09:23:09.355Z,25.17
2018-09-09T09:25:41.549Z,23.40
2018-09-09T09:28:09.332Z,24.53
2018-09-09T09:30:37.124Z,26.37
2018-09-09T09:33:04.882Z,22.80
2018-09-09T09:35:38.159Z,21.83
2018-09-09T09:38:05.911Z,25.83
2018-09-09T09:40:33.684Z,26.53
2018-09-09T09:43:01.378Z,26.47
2018-09-09T09:45:29.134Z,27.23
2018-09-09T09:47:56.888Z,26.00
2018-09-09T09:50:24.652Z,22.93
2018-09-09T09:52:52.391Z,24.43
2018-09-09T09:55:20.158Z,27.27
2018-09-09T09:57:47.916Z,27.37
2018-09-09T10:00:21.328Z,24.67
2018-09-09T10:02:49.060Z,26.20
2018-09-09T10:05:16.825Z,32.87
2018-09-09T10:07:44.695Z,26.77
2018-09-09T10:10:12.406Z,28.87
2018-09-09T10:12:40.168Z,29.83
2018-09-09T10:15:08.049Z,29.90
2018-09-09T10:17:35.761Z,29.30
2018-09-09T10:20:03.692Z,25.70
2018-09-09T10:22:31.573Z,28.30
2018-09-09T10:24:59.256Z,27.93
2018-09-09T10:27:27.076Z,32.37
2018-09-09T10:29:55.073Z,29.07
2018-09-09T10:32:22.939Z,23.83
2018-09-09T10:34:50.677Z,31.57
2018-09-09T10:37:18.380Z,28.43
2018-09-09T10:39:46.092Z,28.23
2018-09-09T10:42:13.862Z,30.40
2018-09-09T10:44:41.593Z,29.40
2018-09-09T10:47:09.339Z,25.83
2018-09-09T10:49:37.125Z,28.67
2018-09-09T10:52:04.816Z,27.67
2018-09-09T10:54:32.565Z,27.87
2018-09-09T10:57:00.261Z,28.77
2018-09-09T10:59:27.968Z,23.10
2018-09-09T11:01:55.733Z,23.20
2018-09-09T11:04:23.444Z,24.43
2018-09-09T11:06:51.296Z,27.50
2018-09-09T11:09:19.025Z,24.80
2018-09-09T11:11:46.728Z,24.23
2018-09-09T11:14:14.509Z,27.43
2018-09-09T11:16:42.440Z,25.33
2018-09-09T11:19:10.172Z,23.87
2018-09-09T11:21:37.934Z,24.00
2018-09-09T11:24:05.712Z,22.80
2018-09-09T11:26:33.409Z,25.60
2018-09-09T11:29:01.144Z,28.17
2018-09-09T11:31:28.856Z,22.97
2018-09-09T11:33:56.577Z,24.60
2018-09-09T11:36:24.371Z,21.83
2018-09-09T11:38:52.063Z,25.30
2018-09-09T11:41:19.776Z,26.90
2018-09-09T11:43:47.528Z,22.97
2018-09-09T11:46:15.235Z,20.57
2018-09-09T11:48:43.045Z,24.43
2018-09-09T11:51:10.760Z,24.43
2018-09-09T11:53:38.479Z,22.93
2018-09-09T11:56:06.749Z,26.43
2018-09-09T11:58:34.581Z,27.97
2018-09-09T12:01:02.354Z,25.77
2018-09-09T12:03:30.156Z,22.17
2018-09-09T12:05:57.866Z,26.00
2018-09-09T12:08:25.557Z,22.77
2018-09-09T12:10:53.292Z,22.37
2018-09-09T12:13:21.064Z,27.63
2018-09-09T12:15:48.769Z,25.63
2018-09-09T12:18:16.517Z,22.93
2018-09-09T12:20:44.240Z,20.93
2018-09-09T12:23:11.991Z,21.53
2018-09-09T12:25:39.757Z,20.83
2018-09-09T12:28:07.537Z,19.57
2018-09-09T12:30:35.246Z,27.37
2018-09-09T12:33:03.014Z,22.37
2018-09-09T12:35:30.702Z,20.47
2018-09-09T12:37:58.426Z,23.27
2018-09-09T12:40:26.128Z,23.03
2018-09-09T12:42:58.333Z,20.17
2018-09-09T12:45:31.772Z,25.03
2018-09-09T12:48:04.972Z,19.27
2018-09-09T12:50:32.673Z,18.90
2018-09-09T12:53:00.364Z,23.83
2018-09-09T12:55:28.137Z,23.77
2018-09-09T12:57:55.848Z,21.27
2018-09-09T13:00:23.594Z,22.33
2018-09-09T13:02:51.347Z,20.90
2018-09-09T13:05:19.045Z,21.20
2018-09-09T13:07:46.752Z,19.17
2018-09-09T13:10:14.465Z,24.30
2018-09-09T13:12:47.827Z,21.73
2018-09-09T13:15:15.555Z,19.33
2018-09-09T13:17:43.292Z,22.63
2018-09-09T13:20:11.080Z,20.30
2018-09-09T13:22:38.901Z,16.83
2018-09-09T13:25:06.687Z,19.23
2018-09-09T13:27:34.413Z,18.13
2018-09-09T13:30:02.224Z,24.23
2018-09-09T13:32:29.952Z,29.03
2018-09-09T13:34:57.648Z,24.93
2018-09-09T13:37:25.412Z,21.53
2018-09-09T13:39:53.096Z,22.23
2018-09-09T13:42:20.834Z,19.07
2018-09-09T13:44:48.593Z,26.77
2018-09-09T13:47:16.316Z,21.83
2018-09-09T13:49:44.060Z,20.67
2018-09-09T13:52:11.856Z,21.13
2018-09-09T13:54:39.575Z,22.93
2018-09-09T13:57:07.279Z,21.30
2018-09-09T13:59:35.017Z,18.13
2018-09-09T14:02:02.753Z,19.90
2018-09-09T14:04:30.521Z,19.70
2018-09-09T14:06:58.255Z,23.73
2018-09-09T14:09:25.992Z,21.23
2018-09-09T14:11:53.716Z,22.73
2018-09-09T14:14:21.413Z,20.43
2018-09-09T14:16:49.133Z,19.53
2018-09-09T14:19:16.896Z,18.40
2018-09-09T14:21:44.611Z,18.80
2018-09-09T14:24:12.332Z,16.57
2018-09-09T14:26:40.095Z,19.37
2018-09-09T14:29:07.801Z,23.80
2018-09-09T14:31:35.611Z,20.63
2018-09-09T14:34:03.346Z,21.60
2018-09-09T14:36:31.856Z,26.63
2018-09-09T14:38:59.639Z,19.27
2018-09-09T14:41:27.389Z,22.83
2018-09-09T14:43:55.124Z,21.20
2018-09-09T14:46:22.854Z,24.43
2018-09-09T14:48:50.540Z,24.50
2018-09-09T14:51:18.340Z,19.17
2018-09-09T14:53:46.113Z,19.97
2018-09-09T14:56:13.903Z,23.00
2018-09-09T14:58:41.844Z,20.50
2018-09-09T15:01:09.652Z,17.07
2018-09-09T15:03:37.384Z,23.07
2018-09-09T15:06:05.161Z,21.30
2018-09-09T15:08:33.033Z,19.40
2018-09-09T15:11:01.536Z,19.30
2018-09-09T15:13:29.286Z,23.47
2018-09-09T15:15:57.208Z,22.80
2018-09-09T15:18:24.921Z,20.03
2018-09-09T15:20:52.679Z,16.50
2018-09-09T15:23:20.457Z,20.73
2018-09-09T15:25:48.180Z,15.87
2018-09-09T15:28:15.964Z,19.50
2018-09-09T15:30:43.892Z,20.00
2018-09-09T15:33:11.648Z,22.27
2018-09-09T15:35:39.425Z,21.47
2018-09-09T15:38:07.165Z,18.13
2018-09-09T15:40:35.005Z,20.63
2018-09-09T15:43:02.722Z,18.20
2018-09-09T15:45:30.505Z,17.80
2018-09-09T15:47:58.271Z,20.87
2018-09-09T15:50:25.970Z,17.70
2018-09-09T15:52:53.688Z,16.23
2018-09-09T15:55:21.447Z,18.83
2018-09-09T15:57:49.224Z,16.73
2018-09-09T16:00:16.991Z,16.50
2018-09-09T16:02:44.755Z,24.77
2018-09-09T16:05:13.290Z,20.63
2018-09-09T16:07:41.032Z,17.20
2018-09-09T16:10:08.840Z,18.30
2018-09-09T16:12:36.588Z,19.43
2018-09-09T16:15:04.432Z,22.23
2018-09-09T16:17:32.148Z,16.87
2018-09-09T16:19:59.864Z,19.00
2018-09-09T16:22:27.628Z,16.97
2018-09-09T16:24:55.356Z,18.93
2018-09-09T16:27:23.112Z,16.90
2018-09-09T16:29:50.839Z,16.27
2018-09-09T16:32:18.588Z,17.43
2018-09-09T16:34:46.370Z,15.07
2018-09-09T16:37:14.132Z,15.77
2018-09-09T16:39:42.036Z,17.23
2018-09-09T16:42:09.819Z,22.87
2018-09-09T16:44:37.658Z,20.67
2018-09-09T16:47:05.444Z,20.30
2018-09-09T16:49:33.184Z,19.23
2018-09-09T16:52:00.911Z,19.50
2018-09-09T16:54:28.640Z,18.00
2018-09-09T16:56:56.439Z,14.93
2018-09-09T16:59:24.189Z,19.50
2018-09-09T17:01:52.099Z,18.97
2018-09-09T17:04:19.899Z,17.53
2018-09-09T17:06:47.620Z,20.23
2018-09-09T17:09:15.392Z,22.57
2018-09-09T17:11:43.110Z,20.97
2018-09-09T17:14:10.938Z,21.17
2018-09-09T17:16:38.644Z,20.83
2018-09-09T17:19:06.412Z,21.27
2018-09-09T17:21:34.195Z,19.00
2018-09-09T17:24:02.007Z,16.57
2018-09-09T17:26:29.748Z,19.17
2018-09-09T17:28:57.463Z,17.17
2018-09-09T17:31:25.210Z,19.90
2018-09-09T17:33:52.941Z,17.77
2018-09-09T17:36:20.660Z,17.30
2018-09-09T17:38:48.452Z,19.23
2018-09-09T17:41:16.180Z,17.60
2018-09-09T17:43:43.899Z,13.93
2018-09-09T17:46:11.663Z,18.90
2018-09-09T17:48:39.401Z,24.90
2018-09-09T17:51:07.141Z,31.83
2018-09-09T17:53:35.459Z,15.00
2018-09-09T17:56:03.166Z,16.00
2018-09-09T17:58:30.909Z,20.23
2018-09-09T18:00:58.666Z,18.73
2018-09-09T18:03:27.284Z,15.47
2018-09-09T18:05:55.009Z,16.60
2018-09-09T18:08:22.744Z,23.40
2018-09-09T18:10:50.451Z,31.77
2018-09-09T18:13:18.163Z,28.40
2018-09-09T18:15:45.944Z,26.43
2018-09-09T18:18:13.656Z,23.37
2018-09-09T18:20:42.086Z,19.30
2018-09-09T18:23:09.816Z,20.47
2018-09-09T18:25:37.502Z,20.23
2018-09-09T18:28:05.343Z,20.13
2018-09-09T18:30:33.242Z,18.97
2018-09-09T18:33:01.017Z,21.60
2018-09-09T18:35:29.084Z,17.97
2018-09-09T18:37:56.817Z,26.93
2018-09-09T18:40:24.524Z,23.33
2018-09-09T18:42:52.283Z,21.20
2018-09-09T18:45:20.025Z,24.60
2018-09-09T18:47:47.772Z,18.97
2018-09-09T18:50:15.544Z,28.80
2018-09-09T18:52:43.316Z,26.37
2018-09-09T18:55:10.996Z,26.20
2018-09-09T18:57:38.751Z,22.60
2018-09-09T19:00:06.689Z,22.57
2018-09-09T19:02:34.352Z,26.93
2018-09-09T19:05:02.078Z,21.87
2018-09-09T19:07:29.777Z,23.90
2018-09-09T19:09:57.714Z,21.47
2018-09-09T19:12:25.415Z,18.67
2018-09-09T19:14:53.200Z,17.93
2018-09-09T19:17:20.936Z,22.23
2018-09-09T19:19:48.640Z,29.37
2018-09-09T19:22:16.385Z,25.83
2018-09-09T19:24:44.180Z,20.70
2018-09-09T19:27:11.871Z,21.37
2018-09-09T19:29:39.576Z,22.43
2018-09-09T19:32:07.413Z,20.60
2018-09-09T19:34:35.154Z,15.53
2018-09-09T19:37:02.872Z,19.97
2018-09-09T19:39:30.612Z,16.90
2018-09-09T19:41:58.348Z,22.40
2018-09-09T19:44:26.099Z,26.37
2018-09-09T19:46:53.829Z,18.90
2018-09-09T19:49:21.592Z,18.03
2018-09-09T19:51:49.480Z,35.10
2018-09-09T19:54:17.237Z,24.57
2018-09-09T19:56:44.992Z,21.57
2018-09-09T19:59:12.763Z,24.03
2018-09-09T20:01:40.558Z,20.67
2018-09-09T20:04:08.454Z,20.90
2018-09-09T20:06:36.199Z,112.73
2018-09-09T20:09:05.656Z,18.73
2018-09-09T20:11:33.354Z,28.23
2018-09-09T20:14:01.122Z,31.33
2018-09-09T20:16:28.920Z,18.37
2018-09-09T20:18:56.643Z,21.00
2018-09-09T20:21:24.347Z,28.27
2018-09-09T20:23:52.122Z,20.63
2018-09-09T20:26:19.836Z,19.30
2018-09-09T20:28:47.531Z,19.30
2018-09-09T20:31:15.292Z,29.03
2018-09-09T20:33:43.016Z,40.67
2018-09-09T20:36:10.783Z,50.43
2018-09-09T20:38:38.568Z,45.57
2018-09-09T20:41:06.338Z,24.57
2018-09-09T20:43:34.135Z,18.37
2018-09-09T20:46:01.897Z,26.67
2018-09-09T20:48:29.821Z,20.33
2018-09-09T20:50:57.528Z,22.47
2018-09-09T20:53:25.248Z,17.93
2018-09-09T20:55:52.915Z,20.67
2018-09-09T20:58:20.646Z,27.87
2018-09-09T21:00:48.317Z,18.37
2018-09-09T21:03:16.041Z,18.67
2018-09-09T21:05:43.745Z,20.90
2018-09-09T21:08:11.489Z,23.33
2018-09-09T21:10:39.227Z,21.53
2018-09-09T21:13:06.974Z,31.10
2018-09-09T21:15:34.731Z,35.83
2018-09-09T21:18:02.496Z,26.67
2018-09-09T21:20:30.195Z,22.77
2018-09-09T21:22:57.935Z,29.53
2018-09-09T21:25:25.724Z,27.43
2018-09-09T21:27:53.460Z,21.30
2018-09-09T21:30:21.186Z,27.53
2018-09-09T21:32:48.918Z,40.33
2018-09-09T21:35:16.616Z,39.43
2018-09-09T21:40:23.931Z,19.87
2018-09-09T21:42:51.640Z,16.97
2018-09-09T21:45:19.392Z,26.63
2018-09-09T21:47:47.117Z,19.57
2018-09-09T21:50:14.823Z,19.70
2018-09-09T21:52:42.673Z,15.33
2018-09-09T21:55:10.373Z,25.53
2018-09-09T21:57:38.096Z,18.37
2018-09-09T22:00:08.565Z,17.10
2018-09-09T22:02:36.420Z,20.07
2018-09-09T22:05:04.169Z,17.60
2018-09-09T22:07:31.902Z,17.57
2018-09-09T22:09:59.581Z,18.67
2018-09-09T22:12:27.264Z,14.40
2018-09-09T22:14:55.027Z,23.50
2018-09-09T22:17:23.447Z,18.07
2018-09-09T22:19:51.187Z,13.67
2018-09-09T22:22:18.965Z,19.70
2018-09-09T22:24:46.664Z,16.17
2018-09-09T22:27:14.356Z,18.60
2018-09-09T22:29:42.108Z,14.13
2018-09-09T22:32:09.905Z,17.13
2018-09-09T22:34:37.748Z,17.07
2018-09-09T22:37:05.472Z,34.37
2018-09-09T22:39:33.207Z,33.93
2018-09-09T22:42:00.916Z,25.07
2018-09-09T22:44:28.633Z,22.10
2018-09-09T22:46:56.357Z,14.97
2018-09-09T22:49:24.096Z,26.23
2018-09-09T22:51:51.847Z,21.30
2018-09-09T22:54:19.587Z,24.50
2018-09-09T22:56:47.291Z,34.93
2018-09-09T22:59:14.993Z,22.50
2018-09-09T23:01:42.701Z,27.17
2018-09-09T23:04:10.473Z,15.97
2018-09-09T23:06:38.180Z,23.17
2018-09-09T23:09:08.289Z,29.80
2018-09-09T23:11:36.047Z,17.40
2018-09-09T23:14:03.783Z,18.23
2018-09-09T23:16:31.495Z,31.80
2018-09-09T23:18:59.262Z,21.20
2018-09-09T23:21:26.978Z,21.53
2018-09-09T23:23:54.717Z,18.90
2018-09-09T23:26:22.448Z,20.23
2018-09-09T23:28:50.428Z,18.50
2018-09-09T23:31:18.129Z,32.40
2018-09-09T23:33:45.836Z,26.23
2018-09-09T23:36:13.671Z,17.60
2018-09-09T23:38:41.371Z,22.40
2018-09-09T23:41:09.096Z,22.67
2018-09-09T23:43:36.832Z,22.60
2018-09-09T23:46:04.565Z,15.20
2018-09-09T23:48:32.307Z,16.23
2018-09-09T23:51:00.055Z,14.87
2018-09-09T23:53:27.756Z,15.43
2018-09-09T23:55:55.487Z,15.70
2018-09-09T23:58:23.188Z,14.57
